createdAt,value
2019-03-03T00:03:22.551Z,48.68
2019-03-03T00:07:27.310Z,48.02
2019-03-03T00:11:31.835Z,47.03
2019-03-03T00:15:37.568Z,47.00
2019-03-03T00:19:42.382Z,42.93
2019-03-03T00:23:47.168Z,49.65
2019-03-03T00:27:51.918Z,46.60
2019-03-03T00:31:56.369Z,46.73
2019-03-03T00:36:00.819Z,45.38
2019-03-03T00:40:28.877Z,48.70
2019-03-03T00:45:07.840Z,50.80
2019-03-03T00:49:34.271Z,49.88
2019-03-03T00:53:58.046Z,49.85
2019-03-03T00:58:27.679Z,48.03
2019-03-03T01:02:46.032Z,51.15
2019-03-03T01:07:15.860Z,50.67
2019-03-03T01:11:33.180Z,51.20
2019-03-03T01:15:56.727Z,51.80
2019-03-03T01:20:22.395Z,55.15
2019-03-03T01:24:39.089Z,58.85
2019-03-03T01:28:44.172Z,54.90
2019-03-03T01:32:48.586Z,62.27
2019-03-03T01:36:53.034Z,65.22
2019-03-03T01:40:57.514Z,64.92
2019-03-03T01:45:01.944Z,69.30
2019-03-03T01:49:06.509Z,68.15
2019-03-03T01:53:11.002Z,68.65
2019-03-03T01:57:15.734Z,70.60
2019-03-03T02:01:20.434Z,78.85
2019-03-03T02:05:26.552Z,76.77
2019-03-03T02:09:31.318Z,81.95
2019-03-03T02:13:35.988Z,73.90
2019-03-03T02:17:40.444Z,76.25
2019-03-03T02:21:45.196Z,81.82
2019-03-03T02:25:49.870Z,79.22
2019-03-03T02:29:54.568Z,75.00
2019-03-03T02:33:59.415Z,70.37
2019-03-03T02:38:03.805Z,83.40
2019-03-03T02:42:08.211Z,83.95
2019-03-03T02:46:12.933Z,76.42
2019-03-03T02:50:17.365Z,80.97
2019-03-03T02:54:22.112Z,93.67
2019-03-03T02:58:28.455Z,101.65
2019-03-03T03:02:44.907Z,102.25
2019-03-03T03:06:55.564Z,118.77
2019-03-03T03:11:07.765Z,120.95
2019-03-03T03:15:20.316Z,140.80
2019-03-03T03:19:44.994Z,137.65
2019-03-03T03:24:14.953Z,157.97
2019-03-03T03:28:29.768Z,130.93
2019-03-03T03:32:43.360Z,151.78
2019-03-03T03:37:13.433Z,180.83
2019-03-03T03:41:35.347Z,163.70
2019-03-03T03:46:04.245Z,176.90
2019-03-03T03:50:31.213Z,178.00
2019-03-03T03:55:12.884Z,175.45
2019-03-03T03:59:23.176Z,168.55
2019-03-03T04:03:45.296Z,157.50
2019-03-03T04:08:00.276Z,160.57
2019-03-03T04:12:29.931Z,163.65
2019-03-03T04:16:43.149Z,206.75
2019-03-03T04:20:55.778Z,171.28
2019-03-03T04:25:17.945Z,119.72
2019-03-03T04:29:41.478Z,130.00
2019-03-03T04:34:04.468Z,80.53
2019-03-03T04:38:21.471Z,91.42
2019-03-03T04:42:36.200Z,125.75
2019-03-03T04:46:45.862Z,122.62
2019-03-03T04:51:09.361Z,104.45
2019-03-03T04:55:31.775Z,99.00
2019-03-03T05:00:05.320Z,103.10
2019-03-03T05:04:22.366Z,98.17
2019-03-03T05:08:36.048Z,91.80
2019-03-03T05:13:05.757Z,55.78
2019-03-03T05:17:33.374Z,64.50
2019-03-03T05:21:38.306Z,58.25
2019-03-03T05:25:42.767Z,56.20
2019-03-03T05:29:47.158Z,52.15
2019-03-03T05:33:51.580Z,54.88
2019-03-03T05:37:56.471Z,47.50
2019-03-03T05:42:01.236Z,46.50
2019-03-03T05:46:05.980Z,47.30
2019-03-03T05:50:10.412Z,45.95
2019-03-03T05:54:14.893Z,46.10
2019-03-03T05:58:19.615Z,40.95
2019-03-03T06:02:24.419Z,37.88
2019-03-03T06:06:28.830Z,40.50
2019-03-03T06:10:33.218Z,35.55
2019-03-03T06:14:37.636Z,37.58
2019-03-03T06:18:42.067Z,34.48
2019-03-03T06:22:46.477Z,29.45
2019-03-03T06:26:50.901Z,25.02
2019-03-03T06:30:55.959Z,29.95
2019-03-03T06:35:00.428Z,25.70
2019-03-03T06:39:06.200Z,24.20
2019-03-03T06:43:10.987Z,24.20
2019-03-03T06:47:15.628Z,19.15
2019-03-03T06:51:20.055Z,18.62
2019-03-03T06:55:24.811Z,18.73
2019-03-03T06:59:29.269Z,18.27
2019-03-03T07:03:33.819Z,16.07
2019-03-03T07:07:38.264Z,17.25
2019-03-03T07:11:42.708Z,15.40
2019-03-03T07:15:47.789Z,15.13
2019-03-03T07:19:53.344Z,14.43
2019-03-03T07:23:58.437Z,14.35
2019-03-03T07:28:02.936Z,13.83
2019-03-03T07:32:07.963Z,15.28
2019-03-03T07:36:12.397Z,12.05
2019-03-03T07:40:16.844Z,15.38
2019-03-03T07:44:21.573Z,13.10
2019-03-03T07:48:26.063Z,10.75
2019-03-03T07:52:30.511Z,12.23
2019-03-03T07:56:34.934Z,12.23
2019-03-03T08:00:40.634Z,13.98
2019-03-03T08:04:45.818Z,11.03
2019-03-03T08:08:50.880Z,13.13
2019-03-03T08:12:56.247Z,15.43
2019-03-03T08:17:01.242Z,10.38
2019-03-03T08:21:06.008Z,16.82
2019-03-03T08:25:10.829Z,10.25
2019-03-03T08:29:15.252Z,10.68
2019-03-03T08:33:19.768Z,10.25
2019-03-03T08:37:24.963Z,12.63
2019-03-03T08:41:29.671Z,12.98
2019-03-03T08:45:52.115Z,11.97
2019-03-03T08:50:16.839Z,11.60
2019-03-03T08:54:28.421Z,9.03
2019-03-03T08:58:39.583Z,11.53
2019-03-03T09:03:06.760Z,10.28
2019-03-03T09:07:30.684Z,11.57
2019-03-03T09:11:51.384Z,11.30
2019-03-03T09:16:11.808Z,13.90
2019-03-03T09:20:22.052Z,13.35
2019-03-03T09:24:45.873Z,11.80
2019-03-03T09:28:57.765Z,13.35
2019-03-03T09:33:30.986Z,13.90
2019-03-03T09:37:48.491Z,12.30
2019-03-03T09:42:01.024Z,15.13
2019-03-03T09:46:22.333Z,11.22
2019-03-03T09:50:37.836Z,8.85
2019-03-03T09:54:50.248Z,11.70
2019-03-03T09:59:12.724Z,14.68
2019-03-03T10:03:25.356Z,14.05
2019-03-03T10:07:47.557Z,9.63
2019-03-03T10:12:09.831Z,16.62
2019-03-03T10:16:33.534Z,11.55
2019-03-03T10:20:53.537Z,15.17
2019-03-03T10:25:16.138Z,10.68
2019-03-03T10:29:39.735Z,15.20
2019-03-03T10:33:53.923Z,11.20
2019-03-03T10:38:24.966Z,14.15
2019-03-03T10:42:55.273Z,12.15
2019-03-03T10:47:10.454Z,12.28
2019-03-03T10:51:45.344Z,11.63
2019-03-03T10:56:22.870Z,11.73
2019-03-03T11:00:41.268Z,13.93
2019-03-03T11:05:09.829Z,11.40
2019-03-03T11:09:50.245Z,12.70
2019-03-03T11:14:18.932Z,17.48
2019-03-03T11:18:36.584Z,11.35
2019-03-03T11:23:00.530Z,12.20
2019-03-03T11:27:22.432Z,15.38
2019-03-03T11:31:45.323Z,11.18
2019-03-03T11:35:58.639Z,11.80
2019-03-03T11:40:17.540Z,12.58
2019-03-03T11:44:40.333Z,11.03
2019-03-03T11:48:54.066Z,12.35
2019-03-03T11:53:10.353Z,15.50
2019-03-03T11:57:30.475Z,12.45
2019-03-03T12:01:52.811Z,14.60
2019-03-03T12:06:10.944Z,11.22
2019-03-03T12:10:43.570Z,11.43
2019-03-03T12:15:10.512Z,14.23
2019-03-03T12:19:28.261Z,12.78
2019-03-03T12:23:46.984Z,15.78
2019-03-03T12:28:19.311Z,15.70
2019-03-03T12:32:33.016Z,15.15
2019-03-03T12:36:43.700Z,16.93
2019-03-03T12:40:59.077Z,12.15
2019-03-03T12:45:19.860Z,17.85
2019-03-03T12:49:34.075Z,15.20
2019-03-03T12:53:56.634Z,14.18
2019-03-03T12:58:11.283Z,13.78
2019-03-03T13:02:34.095Z,16.02
2019-03-03T13:06:56.670Z,16.25
2019-03-03T13:11:20.099Z,18.40
2019-03-03T13:15:43.387Z,14.00
2019-03-03T13:20:03.478Z,14.10
2019-03-03T13:24:15.527Z,18.48
2019-03-03T13:28:28.020Z,16.73
2019-03-03T13:32:51.926Z,14.10
2019-03-03T13:37:14.785Z,14.23
2019-03-03T13:41:45.799Z,14.55
2019-03-03T13:45:50.700Z,11.90
2019-03-03T13:49:56.021Z,16.93
2019-03-03T13:54:00.610Z,14.15
2019-03-03T13:58:05.504Z,16.55
2019-03-03T14:02:10.351Z,13.45
2019-03-03T14:06:15.164Z,13.98
2019-03-03T14:10:19.627Z,15.55
2019-03-03T14:14:24.106Z,11.22
2019-03-03T14:18:29.307Z,16.25
2019-03-03T14:22:33.815Z,20.10
2019-03-03T14:26:38.967Z,14.68
2019-03-03T14:30:43.960Z,14.10
2019-03-03T14:34:49.773Z,15.05
2019-03-03T14:38:54.400Z,17.87
2019-03-03T14:42:58.987Z,14.35
2019-03-03T14:47:03.838Z,14.38
2019-03-03T14:51:08.798Z,12.88
2019-03-03T14:55:14.877Z,13.58
2019-03-03T14:59:19.761Z,14.38
2019-03-03T15:03:24.483Z,14.95
2019-03-03T15:07:29.257Z,17.30
2019-03-03T15:11:34.118Z,17.15
2019-03-03T15:15:39.610Z,16.82
2019-03-03T15:19:44.113Z,20.32
2019-03-03T15:23:48.920Z,22.85
2019-03-03T15:27:55.263Z,15.13
2019-03-03T15:31:59.664Z,18.10
2019-03-03T15:36:04.091Z,22.27
2019-03-03T15:40:09.740Z,22.40
2019-03-03T15:44:14.425Z,17.02
2019-03-03T15:48:19.134Z,19.62
2019-03-03T15:52:23.628Z,20.12
2019-03-03T15:56:28.697Z,17.82
2019-03-03T16:00:33.311Z,25.82
2019-03-03T16:04:38.393Z,23.02
2019-03-03T16:08:45.073Z,24.60
2019-03-03T16:12:50.085Z,26.57
2019-03-03T16:16:54.890Z,21.95
2019-03-03T16:20:59.349Z,32.95
2019-03-03T16:25:04.165Z,20.90
2019-03-03T16:29:08.806Z,17.42
2019-03-03T16:33:20.417Z,24.55
2019-03-03T16:37:21.245Z,33.95
2019-03-03T16:41:26.081Z,30.90
2019-03-03T16:45:31.552Z,29.70
2019-03-03T16:49:36.249Z,31.55
2019-03-03T16:53:40.691Z,31.02
2019-03-03T16:57:45.082Z,30.50
2019-03-03T17:01:50.048Z,28.32
2019-03-03T17:05:54.549Z,33.45
2019-03-03T17:10:00.234Z,32.28
2019-03-03T17:14:05.066Z,33.60
2019-03-03T17:18:09.692Z,30.62
2019-03-03T17:22:14.457Z,32.38
2019-03-03T17:26:18.996Z,34.80
2019-03-03T17:30:25.770Z,25.00
2019-03-03T17:34:30.157Z,23.32
2019-03-03T17:38:35.654Z,22.67
2019-03-03T17:42:40.783Z,35.65
2019-03-03T17:46:45.499Z,32.88
2019-03-03T17:50:50.401Z,31.15
2019-03-03T17:54:55.136Z,30.72
2019-03-03T17:58:59.851Z,29.70
2019-03-03T18:03:04.292Z,28.95
2019-03-03T18:07:11.035Z,22.62
2019-03-03T18:11:16.421Z,20.80
2019-03-03T18:15:21.503Z,24.27
2019-03-03T18:19:26.816Z,21.87
2019-03-03T18:23:31.486Z,20.40
2019-03-03T18:27:36.341Z,25.68
2019-03-03T18:31:40.825Z,15.28
2019-03-03T18:35:45.772Z,21.27
2019-03-03T18:39:51.145Z,19.48
2019-03-03T18:43:55.561Z,15.72
2019-03-03T18:48:00.328Z,18.92
2019-03-03T18:52:05.024Z,19.95
2019-03-03T18:56:09.777Z,15.32
2019-03-03T19:00:16.020Z,20.90
2019-03-03T19:04:20.982Z,21.12
2019-03-03T19:08:25.862Z,22.55
2019-03-03T19:12:30.614Z,17.42
2019-03-03T19:16:35.394Z,22.13
2019-03-03T19:20:39.989Z,19.82
2019-03-03T19:24:45.051Z,20.00
2019-03-03T19:28:49.538Z,14.50
2019-03-03T19:33:01.476Z,16.45
2019-03-03T19:37:06.523Z,20.43
2019-03-03T19:41:11.202Z,16.07
2019-03-03T19:45:18.976Z,13.35
2019-03-03T19:49:23.877Z,15.35
2019-03-03T19:53:28.609Z,18.52
2019-03-03T19:57:33.046Z,14.25
2019-03-03T20:01:37.918Z,17.35
2019-03-03T20:05:42.326Z,14.47
2019-03-03T20:09:47.531Z,14.25
2019-03-03T20:13:54.161Z,12.58
2019-03-03T20:17:59.223Z,14.93
2019-03-03T20:22:03.725Z,13.05
2019-03-03T20:26:08.447Z,12.30
2019-03-03T20:30:16.532Z,16.02
2019-03-03T20:34:21.783Z,14.68
2019-03-03T20:38:26.168Z,15.68
2019-03-03T20:42:30.985Z,14.83
2019-03-03T20:46:35.490Z,13.22
2019-03-03T20:50:40.113Z,13.20
2019-03-03T20:54:44.915Z,15.08
2019-03-03T20:58:49.439Z,13.10
2019-03-03T21:02:53.978Z,10.88
2019-03-03T21:06:58.732Z,9.65
2019-03-03T21:11:04.118Z,14.40
2019-03-03T21:15:09.824Z,13.75
2019-03-03T21:19:15.078Z,14.25
2019-03-03T21:23:19.665Z,11.95
2019-03-03T21:27:24.391Z,9.70
2019-03-03T21:31:28.819Z,13.83
2019-03-03T21:35:33.644Z,11.60
2019-03-03T21:39:38.498Z,13.38
2019-03-03T21:43:43.225Z,12.85
2019-03-03T21:47:48.358Z,11.70
2019-03-03T21:51:53.847Z,11.65
2019-03-03T21:55:59.906Z,13.85
2019-03-03T22:00:05.960Z,10.18
2019-03-03T22:04:11.699Z,11.50
2019-03-03T22:08:16.223Z,11.03
2019-03-03T22:12:20.649Z,11.10
2019-03-03T22:16:25.097Z,12.25
2019-03-03T22:20:30.095Z,10.68
2019-03-03T22:24:35.964Z,15.08
2019-03-03T22:28:40.574Z,14.28
2019-03-03T22:32:45.279Z,11.38
2019-03-03T22:36:54.336Z,13.72
2019-03-03T22:40:59.719Z,12.78
2019-03-03T22:45:04.597Z,14.03
2019-03-03T22:49:09.169Z,12.40
2019-03-03T22:53:14.272Z,13.20
2019-03-03T22:57:18.698Z,12.25
2019-03-03T23:01:30.332Z,14.07
2019-03-03T23:06:05.386Z,14.10
2019-03-03T23:10:47.599Z,12.18
2019-03-03T23:14:59.677Z,12.23
2019-03-03T23:19:44.822Z,14.00
2019-03-03T23:24:12.847Z,13.68
2019-03-03T23:28:18.085Z,10.10
2019-03-03T23:32:22.608Z,12.55
2019-03-03T23:36:27.156Z,15.20
2019-03-03T23:40:31.907Z,12.28
2019-03-03T23:44:36.432Z,11.03
2019-03-03T23:48:40.847Z,17.30
2019-03-03T23:52:45.628Z,11.35
2019-03-03T23:56:50.273Z,9.28
